Seligman, AZ

08:55 PM MST del 21 Agosto 2014 (GMT -0700)
Williams | Change Station
CLOSE
Current Station
Aeroporto
Location: Williams,
Altitudine: 6680 ft
Stazioni meteo nelle vicinanze

Alt. 6680 ft 35.31 °N, 112.19 °W | Updated 20 minutes ago

Overcast
Coperto
55 °F
Sembra 55 °F
N
0
Vento Variabile Vento da Nord

Oggi
Massima -- | Minima -- °F
--% Possibilità di precip.
Ieri
Massima -- | Minima -- °F
Precip. -- in
5:55 AM 7:12 PM
Luna calante, 10% visible
Pressione 30.33 in
Visibilità 10.0 miglia
Nuvole Coperto 12000 ft
Punto di rugiada 54 °F
Umidità 94%
Piovosità 0.66 in
Spessore del manto nevoso Non disponibile.
Raggi UV 0 fuori da 12
Polline 5.10 fuori da 12
Qualità dell'aria Non disponibile.
Flu Activity Non disponibile.
METAR KCMR 220335Z AUTO 00000KT 10SM OVC120 13/12 A3033 RMK AO1

More Conditions Fewer Conditions

Pressione 30.33 in
Visibilità 10.0 miglia
Nuvole Coperto 12000 ft
Punto di rugiada 54 °F
Umidità 94%
Piovosità 0.66 in
Spessore del manto nevoso Non disponibile.
Raggi UV 0 fuori da 12
Polline 5.10 fuori da 12
Qualità dell'aria Non disponibile.
Flu Activity Non disponibile.
METAR KCMR 220335Z AUTO 00000KT 10SM OVC120 13/12 A3033 RMK AO1

More Conditions Fewer Conditions

10-Day Weather Forecast

Almanac

Astronomia

Aug. 21, 2014 Alba Tramonto
Ora attuale 05:55 MST 19:12 MST
Crepuscolo civile 05:29 MST 19:39 MST
Crepuscolo nautico 04:57 MST 20:11 MST
Crepuscolo astronomico 04:24 MST 20:43 MST
Luna 02:32 MST (8/21) 16:41 MST (8/21)
Estensione della luce visibile 14h 10m
Lunghezza del giorno
13h 17m
Tomorrow will be 2m 2s shorter.
Luna calante, 10% of the Moon is Illuminated
Oggi
Luna calante
Ago 25
Nuovo
Set 2
Primo quarto
Set 8
Luna piena
Set 15
Ultimo quarto

Gli estremi di oggi

State Highs State Lows

Community

WunderPhotos

Upload Photos

1,746,127 foto caricate!

Nearby

Profondità neve

Stazione Profondità Altitudine
White Horse Lake 0 in 7180 ft
Snowslide Canyon 1 in 9730 ft
Mormon Mountain 0 in 7500 ft
Promontory 0 in 7930 ft
Workman Creek 1 in 6900 ft

Attività sismica

Città  Distanza Mag. Data & Ora
Non sono state riportate attività sismiche nelle vicinanze.
Minimo Magnitudo Mostrato è 2.5.

Temperature delle acque costiere

Località Temperatura
Nessun dato dalle stazioni

Stazioni meteo nelle vicinanze